sensor_id;sensor_type;location;lat;lon;timestamp;temperature;humidity
11387;DHT22;5748;53.102;8.456;2023-07-30T00:00:39;20.40;66.70
11387;DHT22;5748;53.102;8.456;2023-07-30T00:03:06;20.40;66.70
11387;DHT22;5748;53.102;8.456;2023-07-30T00:05:34;20.30;66.70
11387;DHT22;5748;53.102;8.456;2023-07-30T00:08:01;20.30;66.80
11387;DHT22;5748;53.102;8.456;2023-07-30T00:10:28;20.30;66.70
11387;DHT22;5748;53.102;8.456;2023-07-30T00:12:55;20.30;66.80
11387;DHT22;5748;53.102;8.456;2023-07-30T00:15:22;20.20;66.90
11387;DHT22;5748;53.102;8.456;2023-07-30T00:17:48;20.30;67.10
11387;DHT22;5748;53.102;8.456;2023-07-30T00:20:15;20.20;67.20
11387;DHT22;5748;53.102;8.456;2023-07-30T00:22:43;20.20;67.10
11387;DHT22;5748;53.102;8.456;2023-07-30T00:25:11;20.10;67.00
11387;DHT22;5748;53.102;8.456;2023-07-30T00:27:37;20.10;67.00
11387;DHT22;5748;53.102;8.456;2023-07-30T00:30:05;20.10;67.10
11387;DHT22;5748;53.102;8.456;2023-07-30T00:32:33;20.10;67.20
11387;DHT22;5748;53.102;8.456;2023-07-30T00:35:00;20.00;67.00
11387;DHT22;5748;53.102;8.456;2023-07-30T00:37:27;20.00;67.10
11387;DHT22;5748;53.102;8.456;2023-07-30T00:39:55;20.00;67.20
11387;DHT22;5748;53.102;8.456;2023-07-30T00:42:22;20.00;67.30
11387;DHT22;5748;53.102;8.456;2023-07-30T00:44:49;20.00;67.40
11387;DHT22;5748;53.102;8.456;2023-07-30T00:47:16;19.90;67.30
11387;DHT22;5748;53.102;8.456;2023-07-30T00:49:43;19.90;67.30
11387;DHT22;5748;53.102;8.456;2023-07-30T00:52:10;19.90;67.30
11387;DHT22;5748;53.102;8.456;2023-07-30T00:54:39;19.90;67.30
11387;DHT22;5748;53.102;8.456;2023-07-30T00:57:09;19.90;67.40
11387;DHT22;5748;53.102;8.456;2023-07-30T00:59:36;19.90;67.40
11387;DHT22;5748;53.102;8.456;2023-07-30T01:02:04;19.90;67.20
11387;DHT22;5748;53.102;8.456;2023-07-30T01:04:32;19.80;67.20
11387;DHT22;5748;53.102;8.456;2023-07-30T01:06:59;19.80;67.10
11387;DHT22;5748;53.102;8.456;2023-07-30T01:09:27;19.80;67.20
11387;DHT22;5748;53.102;8.456;2023-07-30T01:11:55;19.80;67.20
11387;DHT22;5748;53.102;8.456;2023-07-30T01:14:23;19.70;67.20
11387;DHT22;5748;53.102;8.456;2023-07-30T01:16:51;19.70;67.40
11387;DHT22;5748;53.102;8.456;2023-07-30T01:19:18;19.70;67.30
11387;DHT22;5748;53.102;8.456;2023-07-30T01:21:46;19.60;67.20
11387;DHT22;5748;53.102;8.456;2023-07-30T01:24:13;19.60;67.30
11387;DHT22;5748;53.102;8.456;2023-07-30T01:26:45;19.60;67.30
11387;DHT22;5748;53.102;8.456;2023-07-30T01:29:16;19.50;67.60
11387;DHT22;5748;53.102;8.456;2023-07-30T01:31:49;19.50;67.50
11387;DHT22;5748;53.102;8.456;2023-07-30T01:34:20;19.50;67.50
11387;DHT22;5748;53.102;8.456;2023-07-30T01:36:49;19.40;67.50
11387;DHT22;5748;53.102;8.456;2023-07-30T01:39:16;19.40;67.50
11387;DHT22;5748;53.102;8.456;2023-07-30T01:41:44;19.30;68.20
11387;DHT22;5748;53.102;8.456;2023-07-30T01:44:11;19.70;67.90
11387;DHT22;5748;53.102;8.456;2023-07-30T01:46:38;19.30;67.50
11387;DHT22;5748;53.102;8.456;2023-07-30T01:49:05;19.30;67.60
11387;DHT22;5748;53.102;8.456;2023-07-30T01:51:31;19.30;67.60
11387;DHT22;5748;53.102;8.456;2023-07-30T01:54:00;19.20;67.60
11387;DHT22;5748;53.102;8.456;2023-07-30T01:56:26;19.20;67.70
11387;DHT22;5748;53.102;8.456;2023-07-30T01:58:53;19.20;67.60
11387;DHT22;5748;53.102;8.456;2023-07-30T02:01:21;19.20;67.70
11387;DHT22;5748;53.102;8.456;2023-07-30T02:03:48;19.20;67.80
11387;DHT22;5748;53.102;8.456;2023-07-30T02:06:14;19.10;67.80
11387;DHT22;5748;53.102;8.456;2023-07-30T02:08:41;19.10;67.80
11387;DHT22;5748;53.102;8.456;2023-07-30T02:11:10;19.10;67.80
11387;DHT22;5748;53.102;8.456;2023-07-30T02:13:37;19.00;67.80
11387;DHT22;5748;53.102;8.456;2023-07-30T02:16:03;19.10;67.90
11387;DHT22;5748;53.102;8.456;2023-07-30T02:18:30;19.00;67.90
11387;DHT22;5748;53.102;8.456;2023-07-30T02:20:57;19.00;67.90
11387;DHT22;5748;53.102;8.456;2023-07-30T02:23:24;19.00;68.00
11387;DHT22;5748;53.102;8.456;2023-07-30T02:25:51;18.90;67.90
11387;DHT22;5748;53.102;8.456;2023-07-30T02:28:19;18.90;68.00
11387;DHT22;5748;53.102;8.456;2023-07-30T02:30:46;18.90;68.10
11387;DHT22;5748;53.102;8.456;2023-07-30T02:33:13;18.90;68.10
11387;DHT22;5748;53.102;8.456;2023-07-30T02:35:40;18.90;68.20
11387;DHT22;5748;53.102;8.456;2023-07-30T02:38:07;18.90;68.20
11387;DHT22;5748;53.102;8.456;2023-07-30T02:40:33;18.80;68.60
11387;DHT22;5748;53.102;8.456;2023-07-30T02:43:00;18.80;68.30
11387;DHT22;5748;53.102;8.456;2023-07-30T02:45:29;18.80;68.40
11387;DHT22;5748;53.102;8.456;2023-07-30T02:47:56;18.80;68.60
11387;DHT22;5748;53.102;8.456;2023-07-30T02:50:23;18.80;68.10
11387;DHT22;5748;53.102;8.456;2023-07-30T02:52:50;18.80;68.50
11387;DHT22;5748;53.102;8.456;2023-07-30T02:55:17;18.80;68.60
11387;DHT22;5748;53.102;8.456;2023-07-30T02:57:44;18.80;68.50
11387;DHT22;5748;53.102;8.456;2023-07-30T03:00:11;18.80;68.60
11387;DHT22;5748;53.102;8.456;2023-07-30T03:02:40;18.70;68.60
11387;DHT22;5748;53.102;8.456;2023-07-30T03:05:08;18.70;68.60
11387;DHT22;5748;53.102;8.456;2023-07-30T03:07:35;18.70;68.60
11387;DHT22;5748;53.102;8.456;2023-07-30T03:10:02;18.70;68.70
11387;DHT22;5748;53.102;8.456;2023-07-30T03:12:29;18.70;68.80
11387;DHT22;5748;53.102;8.456;2023-07-30T03:14:56;18.70;68.70
11387;DHT22;5748;53.102;8.456;2023-07-30T03:17:23;18.70;68.80
11387;DHT22;5748;53.102;8.456;2023-07-30T03:19:51;18.70;68.80
11387;DHT22;5748;53.102;8.456;2023-07-30T03:22:18;18.70;68.80
11387;DHT22;5748;53.102;8.456;2023-07-30T03:24:46;18.70;68.80
11387;DHT22;5748;53.102;8.456;2023-07-30T03:27:13;18.70;68.90
11387;DHT22;5748;53.102;8.456;2023-07-30T03:29:40;18.60;68.80
11387;DHT22;5748;53.102;8.456;2023-07-30T03:32:07;18.70;68.90
11387;DHT22;5748;53.102;8.456;2023-07-30T03:34:34;18.60;69.00
11387;DHT22;5748;53.102;8.456;2023-07-30T03:37:02;18.60;68.90
11387;DHT22;5748;53.102;8.456;2023-07-30T03:39:29;18.60;69.10
11387;DHT22;5748;53.102;8.456;2023-07-30T03:41:56;18.60;68.90
11387;DHT22;5748;53.102;8.456;2023-07-30T03:44:23;18.60;69.00
11387;DHT22;5748;53.102;8.456;2023-07-30T03:46:50;18.60;68.90
11387;DHT22;5748;53.102;8.456;2023-07-30T03:49:17;18.60;69.00
11387;DHT22;5748;53.102;8.456;2023-07-30T03:51:44;18.60;69.00
11387;DHT22;5748;53.102;8.456;2023-07-30T03:54:12;18.60;69.10
11387;DHT22;5748;53.102;8.456;2023-07-30T03:56:39;18.50;68.90
11387;DHT22;5748;53.102;8.456;2023-07-30T03:59:06;18.50;69.00
11387;DHT22;5748;53.102;8.456;2023-07-30T04:01:33;18.50;69.00
11387;DHT22;5748;53.102;8.456;2023-07-30T04:04:00;18.50;68.90
11387;DHT22;5748;53.102;8.456;2023-07-30T04:06:27;18.50;69.10
11387;DHT22;5748;53.102;8.456;2023-07-30T04:08:54;18.50;69.00
11387;DHT22;5748;53.102;8.456;2023-07-30T04:11:22;18.50;69.00
11387;DHT22;5748;53.102;8.456;2023-07-30T04:13:49;18.50;70.00
11387;DHT22;5748;53.102;8.456;2023-07-30T04:16:16;18.50;69.20
11387;DHT22;5748;53.102;8.456;2023-07-30T04:18:42;18.50;69.30
11387;DHT22;5748;53.102;8.456;2023-07-30T04:21:09;18.50;69.30
11387;DHT22;5748;53.102;8.456;2023-07-30T04:23:36;18.50;69.50
11387;DHT22;5748;53.102;8.456;2023-07-30T04:26:03;18.50;69.50
11387;DHT22;5748;53.102;8.456;2023-07-30T04:28:31;18.60;69.60
11387;DHT22;5748;53.102;8.456;2023-07-30T04:30:58;18.50;69.60
11387;DHT22;5748;53.102;8.456;2023-07-30T04:33:25;18.60;69.70
11387;DHT22;5748;53.102;8.456;2023-07-30T04:35:53;18.60;69.70
11387;DHT22;5748;53.102;8.456;2023-07-30T04:38:19;18.60;69.70
11387;DHT22;5748;53.102;8.456;2023-07-30T04:40:46;18.60;69.80
11387;DHT22;5748;53.102;8.456;2023-07-30T04:43:13;18.60;69.60
11387;DHT22;5748;53.102;8.456;2023-07-30T04:45:42;18.60;69.70
11387;DHT22;5748;53.102;8.456;2023-07-30T04:48:09;18.60;69.70
11387;DHT22;5748;53.102;8.456;2023-07-30T04:50:36;18.60;69.50
11387;DHT22;5748;53.102;8.456;2023-07-30T04:53:04;18.60;69.40
11387;DHT22;5748;53.102;8.456;2023-07-30T04:55:31;18.70;69.50
11387;DHT22;5748;53.102;8.456;2023-07-30T04:57:58;18.60;69.30
11387;DHT22;5748;53.102;8.456;2023-07-30T05:00:25;18.60;69.30
11387;DHT22;5748;53.102;8.456;2023-07-30T05:02:53;18.70;69.60
11387;DHT22;5748;53.102;8.456;2023-07-30T05:05:20;18.60;69.60
11387;DHT22;5748;53.102;8.456;2023-07-30T05:07:47;18.60;69.80
11387;DHT22;5748;53.102;8.456;2023-07-30T05:10:14;18.70;70.00
11387;DHT22;5748;53.102;8.456;2023-07-30T05:12:41;18.70;70.20
11387;DHT22;5748;53.102;8.456;2023-07-30T05:15:09;18.70;70.30
11387;DHT22;5748;53.102;8.456;2023-07-30T05:17:36;18.80;71.20
11387;DHT22;5748;53.102;8.456;2023-07-30T05:20:05;18.80;70.40
11387;DHT22;5748;53.102;8.456;2023-07-30T05:22:33;18.90;70.20
11387;DHT22;5748;53.102;8.456;2023-07-30T05:25:00;19.00;70.40
11387;DHT22;5748;53.102;8.456;2023-07-30T05:27:27;19.00;70.30
11387;DHT22;5748;53.102;8.456;2023-07-30T05:29:54;19.00;70.20
11387;DHT22;5748;53.102;8.456;2023-07-30T05:32:21;19.10;70.10
11387;DHT22;5748;53.102;8.456;2023-07-30T05:34:48;19.10;69.90
11387;DHT22;5748;53.102;8.456;2023-07-30T05:37:16;19.10;69.90
11387;DHT22;5748;53.102;8.456;2023-07-30T05:39:43;19.10;69.90
11387;DHT22;5748;53.102;8.456;2023-07-30T05:42:10;19.10;69.90
11387;DHT22;5748;53.102;8.456;2023-07-30T05:44:37;19.10;70.00
11387;DHT22;5748;53.102;8.456;2023-07-30T05:47:04;19.20;70.20
11387;DHT22;5748;53.102;8.456;2023-07-30T05:49:31;19.20;70.40
11387;DHT22;5748;53.102;8.456;2023-07-30T05:51:58;19.30;70.50
11387;DHT22;5748;53.102;8.456;2023-07-30T05:54:26;19.20;70.60
11387;DHT22;5748;53.102;8.456;2023-07-30T05:56:53;19.30;70.70
11387;DHT22;5748;53.102;8.456;2023-07-30T05:59:20;19.40;70.80
11387;DHT22;5748;53.102;8.456;2023-07-30T06:01:47;19.50;70.80
11387;DHT22;5748;53.102;8.456;2023-07-30T06:04:14;19.60;70.90
11387;DHT22;5748;53.102;8.456;2023-07-30T06:06:41;19.60;70.90
11387;DHT22;5748;53.102;8.456;2023-07-30T06:09:08;19.60;70.80
11387;DHT22;5748;53.102;8.456;2023-07-30T06:11:38;19.70;70.90
11387;DHT22;5748;53.102;8.456;2023-07-30T06:14:05;19.80;71.20
11387;DHT22;5748;53.102;8.456;2023-07-30T06:16:32;19.80;71.10
11387;DHT22;5748;53.102;8.456;2023-07-30T06:18:59;19.90;71.10
11387;DHT22;5748;53.102;8.456;2023-07-30T06:21:25;19.90;71.00
11387;DHT22;5748;53.102;8.456;2023-07-30T06:23:52;20.00;71.10
11387;DHT22;5748;53.102;8.456;2023-07-30T06:26:19;20.10;71.30
11387;DHT22;5748;53.102;8.456;2023-07-30T06:28:47;20.10;71.10
11387;DHT22;5748;53.102;8.456;2023-07-30T06:31:14;20.20;71.20
11387;DHT22;5748;53.102;8.456;2023-07-30T06:33:41;20.30;71.20
11387;DHT22;5748;53.102;8.456;2023-07-30T06:36:08;20.30;71.30
11387;DHT22;5748;53.102;8.456;2023-07-30T06:38:35;20.40;71.40
11387;DHT22;5748;53.102;8.456;2023-07-30T06:41:02;20.40;71.50
11387;DHT22;5748;53.102;8.456;2023-07-30T06:43:28;20.50;71.80
11387;DHT22;5748;53.102;8.456;2023-07-30T06:45:57;20.70;72.10
11387;DHT22;5748;53.102;8.456;2023-07-30T06:48:24;20.70;72.80
11387;DHT22;5748;53.102;8.456;2023-07-30T06:50:51;20.80;72.10
11387;DHT22;5748;53.102;8.456;2023-07-30T06:53:18;21.00;72.20
11387;DHT22;5748;53.102;8.456;2023-07-30T06:55:45;21.10;72.20
11387;DHT22;5748;53.102;8.456;2023-07-30T06:58:11;21.10;72.10
11387;DHT22;5748;53.102;8.456;2023-07-30T07:00:39;21.20;72.00
11387;DHT22;5748;53.102;8.456;2023-07-30T07:03:08;21.80;72.50
11387;DHT22;5748;53.102;8.456;2023-07-30T07:05:35;21.40;72.20
11387;DHT22;5748;53.102;8.456;2023-07-30T07:08:02;21.50;72.30
11387;DHT22;5748;53.102;8.456;2023-07-30T07:10:29;21.70;71.90
11387;DHT22;5748;53.102;8.456;2023-07-30T07:12:55;22.00;72.80
11387;DHT22;5748;53.102;8.456;2023-07-30T07:15:22;21.80;72.40
11387;DHT22;5748;53.102;8.456;2023-07-30T07:17:49;22.20;72.50
11387;DHT22;5748;53.102;8.456;2023-07-30T07:20:17;22.00;72.00
11387;DHT22;5748;53.102;8.456;2023-07-30T07:22:44;22.10;72.00
11387;DHT22;5748;53.102;8.456;2023-07-30T07:25:11;22.20;72.20
11387;DHT22;5748;53.102;8.456;2023-07-30T07:27:38;22.20;72.30
11387;DHT22;5748;53.102;8.456;2023-07-30T07:30:06;22.30;72.50
11387;DHT22;5748;53.102;8.456;2023-07-30T07:32:34;22.50;72.40
11387;DHT22;5748;53.102;8.456;2023-07-30T07:35:05;22.60;72.50
11387;DHT22;5748;53.102;8.456;2023-07-30T07:37:34;22.70;72.50
11387;DHT22;5748;53.102;8.456;2023-07-30T07:40:01;22.80;72.70
11387;DHT22;5748;53.102;8.456;2023-07-30T07:42:29;22.90;73.00
11387;DHT22;5748;53.102;8.456;2023-07-30T07:44:56;23.00;72.70
11387;DHT22;5748;53.102;8.456;2023-07-30T07:47:23;23.20;73.00
11387;DHT22;5748;53.102;8.456;2023-07-30T07:49:50;23.30;73.10
11387;DHT22;5748;53.102;8.456;2023-07-30T07:52:17;23.50;73.10
11387;DHT22;5748;53.102;8.456;2023-07-30T07:54:46;23.70;73.00
11387;DHT22;5748;53.102;8.456;2023-07-30T07:57:13;23.80;72.60
11387;DHT22;5748;53.102;8.456;2023-07-30T07:59:39;23.90;72.60
11387;DHT22;5748;53.102;8.456;2023-07-30T08:02:10;24.00;71.10
11387;DHT22;5748;53.102;8.456;2023-07-30T08:04:37;24.10;70.90
11387;DHT22;5748;53.102;8.456;2023-07-30T08:07:04;24.00;70.40
11387;DHT22;5748;53.102;8.456;2023-07-30T08:09:31;24.00;70.30
11387;DHT22;5748;53.102;8.456;2023-07-30T08:12:00;24.00;70.20
11387;DHT22;5748;53.102;8.456;2023-07-30T08:14:27;24.10;70.10
11387;DHT22;5748;53.102;8.456;2023-07-30T08:16:54;24.00;69.90
11387;DHT22;5748;53.102;8.456;2023-07-30T08:19:21;24.00;69.60
11387;DHT22;5748;53.102;8.456;2023-07-30T08:21:48;24.00;69.60
11387;DHT22;5748;53.102;8.456;2023-07-30T08:24:14;23.90;69.40
11387;DHT22;5748;53.102;8.456;2023-07-30T08:26:41;23.80;69.00
11387;DHT22;5748;53.102;8.456;2023-07-30T08:29:10;23.70;68.70
11387;DHT22;5748;53.102;8.456;2023-07-30T08:31:38;23.60;68.50
11387;DHT22;5748;53.102;8.456;2023-07-30T08:34:05;23.50;68.50
11387;DHT22;5748;53.102;8.456;2023-07-30T08:36:32;23.40;68.50
11387;DHT22;5748;53.102;8.456;2023-07-30T08:38:59;23.40;68.80
11387;DHT22;5748;53.102;8.456;2023-07-30T08:41:26;23.20;69.00
11387;DHT22;5748;53.102;8.456;2023-07-30T08:43:53;23.20;69.30
11387;DHT22;5748;53.102;8.456;2023-07-30T08:46:21;23.20;69.50
11387;DHT22;5748;53.102;8.456;2023-07-30T08:48:48;23.10;69.30
11387;DHT22;5748;53.102;8.456;2023-07-30T08:51:15;23.10;69.50
11387;DHT22;5748;53.102;8.456;2023-07-30T08:53:43;23.10;69.80
11387;DHT22;5748;53.102;8.456;2023-07-30T08:56:10;23.10;69.70
11387;DHT22;5748;53.102;8.456;2023-07-30T08:58:38;23.10;69.70
11387;DHT22;5748;53.102;8.456;2023-07-30T09:01:09;23.30;69.80
11387;DHT22;5748;53.102;8.456;2023-07-30T09:03:39;23.10;69.60
11387;DHT22;5748;53.102;8.456;2023-07-30T09:06:06;23.10;69.70
11387;DHT22;5748;53.102;8.456;2023-07-30T09:08:33;23.10;69.80
11387;DHT22;5748;53.102;8.456;2023-07-30T09:11:07;23.10;69.80
11387;DHT22;5748;53.102;8.456;2023-07-30T09:13:37;23.20;70.00
11387;DHT22;5748;53.102;8.456;2023-07-30T09:16:08;23.20;70.00
11387;DHT22;5748;53.102;8.456;2023-07-30T09:18:41;23.30;70.70
11387;DHT22;5748;53.102;8.456;2023-07-30T09:21:10;23.40;71.20
11387;DHT22;5748;53.102;8.456;2023-07-30T09:23:41;23.60;72.30
11387;DHT22;5748;53.102;8.456;2023-07-30T09:26:08;23.90;72.60
11387;DHT22;5748;53.102;8.456;2023-07-30T09:28:35;24.10;72.50
11387;DHT22;5748;53.102;8.456;2023-07-30T09:31:03;24.40;72.40
11387;DHT22;5748;53.102;8.456;2023-07-30T09:33:31;24.60;71.80
11387;DHT22;5748;53.102;8.456;2023-07-30T09:36:01;24.80;71.00
11387;DHT22;5748;53.102;8.456;2023-07-30T09:38:28;24.90;69.60
11387;DHT22;5748;53.102;8.456;2023-07-30T09:41:00;25.00;69.60
11387;DHT22;5748;53.102;8.456;2023-07-30T09:43:29;25.00;68.90
11387;DHT22;5748;53.102;8.456;2023-07-30T09:46:01;25.00;68.30
11387;DHT22;5748;53.102;8.456;2023-07-30T09:48:29;25.10;68.10
11387;DHT22;5748;53.102;8.456;2023-07-30T09:50:59;25.00;68.00
11387;DHT22;5748;53.102;8.456;2023-07-30T09:53:29;25.00;68.10
11387;DHT22;5748;53.102;8.456;2023-07-30T09:56:00;24.90;68.60
11387;DHT22;5748;53.102;8.456;2023-07-30T09:58:27;25.00;68.90
11387;DHT22;5748;53.102;8.456;2023-07-30T10:00:55;25.10;68.90
11387;DHT22;5748;53.102;8.456;2023-07-30T10:03:22;25.20;69.40
11387;DHT22;5748;53.102;8.456;2023-07-30T10:05:50;25.50;70.40
11387;DHT22;5748;53.102;8.456;2023-07-30T10:08:23;25.80;71.40
11387;DHT22;5748;53.102;8.456;2023-07-30T10:10:51;26.20;71.50
11387;DHT22;5748;53.102;8.456;2023-07-30T10:13:20;26.70;72.30
11387;DHT22;5748;53.102;8.456;2023-07-30T10:15:47;27.20;71.60
11387;DHT22;5748;53.102;8.456;2023-07-30T10:18:14;27.90;70.50
11387;DHT22;5748;53.102;8.456;2023-07-30T10:20:52;27.90;68.40
11387;DHT22;5748;53.102;8.456;2023-07-30T10:23:20;28.20;67.00
11387;DHT22;5748;53.102;8.456;2023-07-30T10:25:49;28.50;67.90
11387;DHT22;5748;53.102;8.456;2023-07-30T10:28:26;28.70;66.20
11387;DHT22;5748;53.102;8.456;2023-07-30T10:30:58;28.80;64.00
11387;DHT22;5748;53.102;8.456;2023-07-30T10:33:45;28.90;63.70
11387;DHT22;5748;53.102;8.456;2023-07-30T10:36:13;28.90;64.00
11387;DHT22;5748;53.102;8.456;2023-07-30T10:38:42;28.90;63.80
11387;DHT22;5748;53.102;8.456;2023-07-30T10:41:10;28.80;62.70
11387;DHT22;5748;53.102;8.456;2023-07-30T10:43:41;28.80;63.00
11387;DHT22;5748;53.102;8.456;2023-07-30T10:46:10;27.50;61.80
11387;DHT22;5748;53.102;8.456;2023-07-30T10:48:39;28.60;63.30
11387;DHT22;5748;53.102;8.456;2023-07-30T10:51:09;28.50;62.50
11387;DHT22;5748;53.102;8.456;2023-07-30T10:53:37;28.50;63.50
11387;DHT22;5748;53.102;8.456;2023-07-30T10:56:06;28.70;64.50
11387;DHT22;5748;53.102;8.456;2023-07-30T10:58:35;28.80;64.10
11387;DHT22;5748;53.102;8.456;2023-07-30T11:01:04;28.90;63.70
11387;DHT22;5748;53.102;8.456;2023-07-30T11:03:31;29.00;61.90
11387;DHT22;5748;53.102;8.456;2023-07-30T11:05:59;28.90;60.10
11387;DHT22;5748;53.102;8.456;2023-07-30T11:08:33;28.70;60.00
11387;DHT22;5748;53.102;8.456;2023-07-30T11:11:02;28.50;58.80
11387;DHT22;5748;53.102;8.456;2023-07-30T11:13:35;28.30;59.40
11387;DHT22;5748;53.102;8.456;2023-07-30T11:16:04;28.00;58.80
11387;DHT22;5748;53.102;8.456;2023-07-30T11:18:31;27.80;59.20
11387;DHT22;5748;53.102;8.456;2023-07-30T11:21:03;27.30;58.60
11387;DHT22;5748;53.102;8.456;2023-07-30T11:23:30;27.20;59.00
11387;DHT22;5748;53.102;8.456;2023-07-30T11:25:57;27.10;58.90
11387;DHT22;5748;53.102;8.456;2023-07-30T11:28:27;26.70;59.00
11387;DHT22;5748;53.102;8.456;2023-07-30T11:30:58;26.40;59.00
11387;DHT22;5748;53.102;8.456;2023-07-30T11:33:26;26.20;59.20
11387;DHT22;5748;53.102;8.456;2023-07-30T11:35:54;26.00;59.30
11387;DHT22;5748;53.102;8.456;2023-07-30T11:38:22;25.70;59.30
11387;DHT22;5748;53.102;8.456;2023-07-30T11:40:50;25.50;59.40
11387;DHT22;5748;53.102;8.456;2023-07-30T11:43:17;25.30;59.70
11387;DHT22;5748;53.102;8.456;2023-07-30T11:45:44;25.10;59.90
11387;DHT22;5748;53.102;8.456;2023-07-30T11:48:13;24.90;59.60
11387;DHT22;5748;53.102;8.456;2023-07-30T11:50:45;24.70;59.20
11387;DHT22;5748;53.102;8.456;2023-07-30T11:53:13;24.30;58.70
11387;DHT22;5748;53.102;8.456;2023-07-30T11:55:41;23.90;58.70
11387;DHT22;5748;53.102;8.456;2023-07-30T11:58:09;23.50;58.90
11387;DHT22;5748;53.102;8.456;2023-07-30T12:00:38;23.10;59.00
11387;DHT22;5748;53.102;8.456;2023-07-30T12:03:08;22.80;59.40
11387;DHT22;5748;53.102;8.456;2023-07-30T12:05:38;22.40;59.50
11387;DHT22;5748;53.102;8.456;2023-07-30T12:08:12;22.10;59.80
11387;DHT22;5748;53.102;8.456;2023-07-30T12:10:44;21.80;60.00
11387;DHT22;5748;53.102;8.456;2023-07-30T12:13:15;21.50;60.50
11387;DHT22;5748;53.102;8.456;2023-07-30T12:15:44;21.50;60.80
11387;DHT22;5748;53.102;8.456;2023-07-30T12:18:11;21.20;61.00
11387;DHT22;5748;53.102;8.456;2023-07-30T12:20:39;21.00;61.30
11387;DHT22;5748;53.102;8.456;2023-07-30T12:23:06;20.90;61.70
11387;DHT22;5748;53.102;8.456;2023-07-30T12:25:33;22.00;63.60
11387;DHT22;5748;53.102;8.456;2023-07-30T12:28:01;20.90;63.80
11387;DHT22;5748;53.102;8.456;2023-07-30T12:30:28;20.90;64.30
11387;DHT22;5748;53.102;8.456;2023-07-30T12:32:56;21.00;65.40
11387;DHT22;5748;53.102;8.456;2023-07-30T12:35:23;21.10;64.90
11387;DHT22;5748;53.102;8.456;2023-07-30T12:37:52;21.30;64.80
11387;DHT22;5748;53.102;8.456;2023-07-30T12:40:19;21.40;64.30
11387;DHT22;5748;53.102;8.456;2023-07-30T12:42:46;21.50;64.10
11387;DHT22;5748;53.102;8.456;2023-07-30T12:45:13;21.50;63.80
11387;DHT22;5748;53.102;8.456;2023-07-30T12:47:40;21.50;63.70
11387;DHT22;5748;53.102;8.456;2023-07-30T12:50:08;21.50;64.00
11387;DHT22;5748;53.102;8.456;2023-07-30T12:52:35;21.60;64.90
11387;DHT22;5748;53.102;8.456;2023-07-30T12:55:04;21.70;66.60
11387;DHT22;5748;53.102;8.456;2023-07-30T12:57:32;22.10;69.30
11387;DHT22;5748;53.102;8.456;2023-07-30T12:59:59;22.60;70.90
11387;DHT22;5748;53.102;8.456;2023-07-30T13:02:31;23.30;71.70
11387;DHT22;5748;53.102;8.456;2023-07-30T13:05:03;24.00;72.10
11387;DHT22;5748;53.102;8.456;2023-07-30T13:07:33;24.80;71.90
11387;DHT22;5748;53.102;8.456;2023-07-30T13:10:11;25.50;71.10
11387;DHT22;5748;53.102;8.456;2023-07-30T13:12:38;26.10;69.30
11387;DHT22;5748;53.102;8.456;2023-07-30T13:15:09;26.70;68.30
11387;DHT22;5748;53.102;8.456;2023-07-30T13:17:37;27.10;66.80
11387;DHT22;5748;53.102;8.456;2023-07-30T13:20:05;27.50;66.40
11387;DHT22;5748;53.102;8.456;2023-07-30T13:22:33;27.70;65.90
11387;DHT22;5748;53.102;8.456;2023-07-30T13:25:00;27.90;65.20
11387;DHT22;5748;53.102;8.456;2023-07-30T13:27:28;28.10;64.80
11387;DHT22;5748;53.102;8.456;2023-07-30T13:29:55;28.20;63.80
11387;DHT22;5748;53.102;8.456;2023-07-30T13:32:22;28.30;62.70
11387;DHT22;5748;53.102;8.456;2023-07-30T13:34:49;28.20;62.10
11387;DHT22;5748;53.102;8.456;2023-07-30T13:37:16;28.30;61.70
11387;DHT22;5748;53.102;8.456;2023-07-30T13:39:42;28.10;61.30
11387;DHT22;5748;53.102;8.456;2023-07-30T13:42:09;27.90;60.30
11387;DHT22;5748;53.102;8.456;2023-07-30T13:44:38;27.80;60.80
11387;DHT22;5748;53.102;8.456;2023-07-30T13:47:05;27.60;60.10
11387;DHT22;5748;53.102;8.456;2023-07-30T13:49:32;27.50;60.10
11387;DHT22;5748;53.102;8.456;2023-07-30T13:51:59;28.50;61.00
11387;DHT22;5748;53.102;8.456;2023-07-30T13:54:26;27.20;59.90
11387;DHT22;5748;53.102;8.456;2023-07-30T13:56:53;27.00;59.50
11387;DHT22;5748;53.102;8.456;2023-07-30T13:59:20;26.90;59.70
11387;DHT22;5748;53.102;8.456;2023-07-30T14:01:48;26.70;59.70
11387;DHT22;5748;53.102;8.456;2023-07-30T14:04:15;26.60;60.10
11387;DHT22;5748;53.102;8.456;2023-07-30T14:06:43;26.40;60.20
11387;DHT22;5748;53.102;8.456;2023-07-30T14:09:10;26.40;60.70
11387;DHT22;5748;53.102;8.456;2023-07-30T14:11:37;26.40;61.10
11387;DHT22;5748;53.102;8.456;2023-07-30T14:14:06;26.40;60.80
11387;DHT22;5748;53.102;8.456;2023-07-30T14:16:33;26.40;60.50
11387;DHT22;5748;53.102;8.456;2023-07-30T14:19:01;26.30;60.10
11387;DHT22;5748;53.102;8.456;2023-07-30T14:21:28;26.20;60.10
11387;DHT22;5748;53.102;8.456;2023-07-30T14:23:55;26.60;60.50
11387;DHT22;5748;53.102;8.456;2023-07-30T14:26:22;26.10;59.50
11387;DHT22;5748;53.102;8.456;2023-07-30T14:28:49;25.80;59.30
11387;DHT22;5748;53.102;8.456;2023-07-30T14:31:16;25.60;59.70
11387;DHT22;5748;53.102;8.456;2023-07-30T14:33:43;25.30;60.00
11387;DHT22;5748;53.102;8.456;2023-07-30T14:36:11;25.10;60.70
11387;DHT22;5748;53.102;8.456;2023-07-30T14:38:38;25.00;61.50
11387;DHT22;5748;53.102;8.456;2023-07-30T14:41:06;24.90;61.40
11387;DHT22;5748;53.102;8.456;2023-07-30T14:43:34;24.80;61.50
11387;DHT22;5748;53.102;8.456;2023-07-30T14:46:01;24.80;61.50
11387;DHT22;5748;53.102;8.456;2023-07-30T14:48:28;24.80;61.40
11387;DHT22;5748;53.102;8.456;2023-07-30T14:50:55;24.80;61.50
11387;DHT22;5748;53.102;8.456;2023-07-30T14:53:24;24.70;61.60
11387;DHT22;5748;53.102;8.456;2023-07-30T14:55:51;24.70;61.60
11387;DHT22;5748;53.102;8.456;2023-07-30T14:58:18;24.70;61.40
11387;DHT22;5748;53.102;8.456;2023-07-30T15:00:45;24.70;61.20
11387;DHT22;5748;53.102;8.456;2023-07-30T15:03:12;24.60;61.30
11387;DHT22;5748;53.102;8.456;2023-07-30T15:05:39;24.50;61.30
11387;DHT22;5748;53.102;8.456;2023-07-30T15:08:06;24.50;60.60
11387;DHT22;5748;53.102;8.456;2023-07-30T15:10:34;24.50;60.60
11387;DHT22;5748;53.102;8.456;2023-07-30T15:13:01;24.50;60.50
11387;DHT22;5748;53.102;8.456;2023-07-30T15:15:28;24.60;60.80
11387;DHT22;5748;53.102;8.456;2023-07-30T15:17:54;24.40;60.30
11387;DHT22;5748;53.102;8.456;2023-07-30T15:20:21;24.40;60.20
11387;DHT22;5748;53.102;8.456;2023-07-30T15:22:48;24.60;60.10
11387;DHT22;5748;53.102;8.456;2023-07-30T15:25:16;24.40;59.70
11387;DHT22;5748;53.102;8.456;2023-07-30T15:27:44;24.30;59.40
11387;DHT22;5748;53.102;8.456;2023-07-30T15:30:11;24.30;59.50
11387;DHT22;5748;53.102;8.456;2023-07-30T15:32:41;24.30;59.20
11387;DHT22;5748;53.102;8.456;2023-07-30T15:35:09;24.20;59.30
11387;DHT22;5748;53.102;8.456;2023-07-30T15:37:37;24.20;59.30
11387;DHT22;5748;53.102;8.456;2023-07-30T15:40:05;24.30;59.20
11387;DHT22;5748;53.102;8.456;2023-07-30T15:42:33;24.20;59.00
11387;DHT22;5748;53.102;8.456;2023-07-30T15:45:02;24.20;59.00
11387;DHT22;5748;53.102;8.456;2023-07-30T15:47:30;24.00;58.90